Time;durP1;ratioP1;P1;durP2;ratioP2;P2;SDS_P1;SDS_P2;PMS_P1;PMS_P2;Temp;Humidity;BMP_temperature;BMP_pressure;BME280_temperature;BME280_humidity;BME280_pressure;Samples;Min_cycle;Max_cycle;Signal;HPM_P1;HPM_P2
2022/01/06 00:00:19;;;;;;;14.23;2.80;;;;;;;;;;5073921;28;20265;-69
2022/01/06 00:02:44;;;;;;;16.23;3.47;;;;;;;;;;5071506;28;20208;-69
2022/01/06 00:05:09;;;;;;;8.30;2.10;;;;;;;;;;5075191;28;20207;-69
2022/01/06 00:07:35;;;;;;;15.40;2.80;;;;;;;;;;5073818;28;20219;-69
2022/01/06 00:10:00;;;;;;;12.27;2.30;;;;;;;;;;5055039;28;20249;-71
2022/01/06 00:12:35;;;;;;;9.17;2.27;;;;;;;;;;5072015;28;20180;-69
2022/01/06 00:15:12;;;;;;;16.47;2.40;;;;;;;;;;5071823;28;20215;-69
2022/01/06 00:23:28;;;;;;;9.07;2.07;;;;;;;;;;5069100;28;20214;-71
2022/01/06 00:25:53;;;;;;;10.47;2.27;;;;;;;;;;5072835;28;22357;-69
2022/01/06 00:28:19;;;;;;;10.70;2.70;;;;;;;;;;5052970;28;20180;-69
2022/01/06 00:30:44;;;;;;;11.67;2.27;;;;;;;;;;5070904;28;20699;-69
2022/01/06 00:33:10;;;;;;;6.93;1.73;;;;;;;;;;5055539;28;20263;-69
2022/01/06 00:35:35;;;;;;;11.17;2.80;;;;;;;;;;5083203;22;20243;-71
2022/01/06 00:38:01;;;;;;;15.17;2.30;;;;;;;;;;5069740;28;20184;-71
2022/01/06 00:40:26;;;;;;;8.80;3.03;;;;;;;;;;5051203;28;20180;-69
2022/01/06 00:42:51;;;;;;;12.47;2.37;;;;;;;;;;5052124;28;20176;-71
2022/01/06 00:45:16;;;;;;;8.27;1.97;;;;;;;;;;5069057;28;20240;-70
2022/01/06 00:47:43;;;;;;;7.03;1.97;;;;;;;;;;5071141;28;20195;-70
2022/01/06 00:50:08;;;;;;;11.40;1.97;;;;;;;;;;5051935;28;20191;-70
2022/01/06 00:52:34;;;;;;;9.40;3.83;;;;;;;;;;5072980;28;21806;-70
2022/01/06 00:54:59;;;;;;;10.13;1.87;;;;;;;;;;5070206;28;20681;-71
2022/01/06 00:57:24;;;;;;;9.87;3.03;;;;;;;;;;5070839;28;20194;-70
2022/01/06 00:59:49;;;;;;;10.43;2.30;;;;;;;;;;5072725;28;20669;-71
2022/01/06 01:02:15;;;;;;;6.73;2.00;;;;;;;;;;5070205;28;20173;-70
2022/01/06 01:04:40;;;;;;;9.07;1.80;;;;;;;;;;5071213;28;20240;-70
2022/01/06 01:07:05;;;;;;;10.27;2.33;;;;;;;;;;5074541;28;20858;-70
2022/01/06 01:09:31;;;;;;;11.50;2.70;;;;;;;;;;5067957;28;20294;-70
2022/01/06 01:11:56;;;;;;;8.70;2.53;;;;;;;;;;5074765;28;20173;-70
2022/01/06 01:14:33;;;;;;;12.47;3.23;;;;;;;;;;5070444;28;20204;-70
2022/01/06 01:17:01;;;;;;;14.77;3.10;;;;;;;;;;5070852;28;20212;-70
2022/01/06 01:19:28;;;;;;;10.80;2.80;;;;;;;;;;5071075;28;20214;-70
2022/01/06 01:21:53;;;;;;;10.73;2.30;;;;;;;;;;5071191;28;20181;-70
2022/01/06 01:24:18;;;;;;;8.77;2.00;;;;;;;;;;5070903;28;21249;-70
2022/01/06 01:26:44;;;;;;;10.07;3.30;;;;;;;;;;5067841;28;20737;-70
2022/01/06 01:29:13;;;;;;;9.70;2.97;;;;;;;;;;5056929;28;20188;-70
2022/01/06 01:31:43;;;;;;;10.43;2.37;;;;;;;;;;5090067;28;20183;-70
2022/01/06 01:34:09;;;;;;;8.23;2.20;;;;;;;;;;5066409;28;21542;-71
2022/01/06 01:36:35;;;;;;;8.67;2.27;;;;;;;;;;5068648;28;20836;-70
2022/01/06 01:39:00;;;;;;;7.47;2.00;;;;;;;;;;5070632;28;20292;-70
2022/01/06 01:41:26;;;;;;;12.60;3.00;;;;;;;;;;5074988;28;20193;-70
2022/01/06 01:43:53;;;;;;;9.30;2.47;;;;;;;;;;5072948;28;20242;-70
2022/01/06 01:46:21;;;;;;;14.27;2.30;;;;;;;;;;5072967;28;20180;-70
2022/01/06 01:48:53;;;;;;;9.00;2.17;;;;;;;;;;5077564;28;20206;-70
2022/01/06 01:51:18;;;;;;;8.03;3.20;;;;;;;;;;5073488;28;20187;-70
2022/01/06 01:53:43;;;;;;;7.97;2.93;;;;;;;;;;5056493;28;20186;-70
2022/01/06 01:56:09;;;;;;;4.77;2.50;;;;;;;;;;5057094;28;20695;-70
2022/01/06 01:58:35;;;;;;;14.80;4.03;;;;;;;;;;5075296;28;20626;-70
2022/01/06 02:01:01;;;;;;;11.37;3.97;;;;;;;;;;5077321;28;20246;-70
2022/01/06 02:03:26;;;;;;;10.93;3.10;;;;;;;;;;5062740;28;20267;-70
2022/01/06 02:05:51;;;;;;;8.53;2.30;;;;;;;;;;5054185;28;20606;-70
2022/01/06 02:08:16;;;;;;;9.73;2.60;;;;;;;;;;5075168;28;20211;-70
2022/01/06 02:10:42;;;;;;;12.20;2.33;;;;;;;;;;5077820;28;21238;-70
2022/01/06 02:13:07;;;;;;;31.30;2.90;;;;;;;;;;5074116;28;20285;-70
2022/01/06 02:15:32;;;;;;;12.13;1.97;;;;;;;;;;5075520;28;20669;-70
2022/01/06 02:17:57;;;;;;;14.67;3.10;;;;;;;;;;5076007;28;20637;-70
2022/01/06 02:20:23;;;;;;;12.73;3.73;;;;;;;;;;5056093;28;20215;-70
2022/01/06 02:22:49;;;;;;;15.13;2.50;;;;;;;;;;5072669;28;20215;-71
2022/01/06 02:25:18;;;;;;;12.97;2.70;;;;;;;;;;5074413;28;20200;-70
2022/01/06 02:27:44;;;;;;;9.10;2.50;;;;;;;;;;5072798;28;20668;-70
2022/01/06 02:30:10;;;;;;;14.43;2.93;;;;;;;;;;5072418;28;20664;-70
2022/01/06 02:32:36;;;;;;;12.83;3.07;;;;;;;;;;5072237;28;20237;-71
2022/01/06 02:35:06;;;;;;;9.10;2.27;;;;;;;;;;5071567;28;20216;-71
2022/01/06 02:37:31;;;;;;;11.83;2.73;;;;;;;;;;5073242;28;20292;-70
2022/01/06 02:39:56;;;;;;;11.13;2.83;;;;;;;;;;5072353;28;20575;-71
2022/01/06 02:42:22;;;;;;;11.47;2.13;;;;;;;;;;5071349;28;20193;-70
2022/01/06 02:44:47;;;;;;;9.27;2.03;;;;;;;;;;5075592;28;20211;-70
2022/01/06 02:47:13;;;;;;;13.43;2.40;;;;;;;;;;5074979;28;20168;-71
2022/01/06 02:49:38;;;;;;;9.30;1.93;;;;;;;;;;5074512;28;20185;-70
2022/01/06 02:52:03;;;;;;;9.73;2.30;;;;;;;;;;5073737;28;20185;-70
2022/01/06 02:54:28;;;;;;;9.47;3.33;;;;;;;;;;5072229;28;20583;-70
2022/01/06 02:56:53;;;;;;;10.63;2.47;;;;;;;;;;5074582;28;20180;-70
2022/01/06 02:59:19;;;;;;;11.83;2.13;;;;;;;;;;5075974;28;20204;-70
2022/01/06 03:01:44;;;;;;;15.40;2.50;;;;;;;;;;5076686;28;20817;-70
2022/01/06 03:04:10;;;;;;;8.93;2.43;;;;;;;;;;5078152;28;20708;-70
2022/01/06 03:06:35;;;;;;;9.07;2.03;;;;;;;;;;5079257;28;20259;-70
2022/01/06 03:09:01;;;;;;;9.90;2.73;;;;;;;;;;5083450;28;20648;-70
2022/01/06 03:11:26;;;;;;;10.93;2.00;;;;;;;;;;5075424;28;22963;-70
2022/01/06 03:13:56;;;;;;;14.80;2.40;;;;;;;;;;5083225;28;20184;-70
2022/01/06 03:16:21;;;;;;;16.87;3.07;;;;;;;;;;5073815;28;20286;-70
2022/01/06 03:18:46;;;;;;;11.23;2.73;;;;;;;;;;5071454;28;21789;-70
2022/01/06 03:21:12;;;;;;;9.73;2.03;;;;;;;;;;5073843;28;20175;-70
2022/01/06 03:23:37;;;;;;;13.17;3.70;;;;;;;;;;5072676;28;20263;-70
2022/01/06 03:26:03;;;;;;;6.43;2.40;;;;;;;;;;5071285;28;20196;-70
2022/01/06 03:28:28;;;;;;;13.00;2.10;;;;;;;;;;5070878;28;20208;-70
2022/01/06 03:30:53;;;;;;;8.50;2.10;;;;;;;;;;5079545;28;20198;-70
2022/01/06 03:33:18;;;;;;;10.07;2.00;;;;;;;;;;5068543;28;20180;-70
2022/01/06 03:35:44;;;;;;;10.30;2.03;;;;;;;;;;5070227;28;20264;-69
2022/01/06 03:38:09;;;;;;;7.60;2.13;;;;;;;;;;5068057;28;20675;-71
2022/01/06 03:40:34;;;;;;;6.13;1.37;;;;;;;;;;5069284;28;20226;-71
2022/01/06 03:42:59;;;;;;;8.00;1.73;;;;;;;;;;5066740;28;20181;-71
2022/01/06 03:45:25;;;;;;;14.40;2.17;;;;;;;;;;5068858;28;21896;-71
2022/01/06 03:47:50;;;;;;;7.27;2.40;;;;;;;;;;5069745;28;20230;-71
2022/01/06 03:50:16;;;;;;;9.83;2.57;;;;;;;;;;5070974;28;20267;-70
2022/01/06 03:52:41;;;;;;;10.77;2.17;;;;;;;;;;5068914;28;20172;-70
2022/01/06 03:55:07;;;;;;;8.60;1.73;;;;;;;;;;5066583;28;20211;-70
2022/01/06 03:57:34;;;;;;;9.83;1.80;;;;;;;;;;5068545;28;20714;-70
2022/01/06 03:59:59;;;;;;;7.90;1.73;;;;;;;;;;5052358;28;20204;-70
2022/01/06 04:02:24;;;;;;;8.13;2.20;;;;;;;;;;5066648;28;20316;-70
2022/01/06 04:04:50;;;;;;;8.47;1.93;;;;;;;;;;5056659;28;20200;-70
2022/01/06 04:07:15;;;;;;;7.63;2.10;;;;;;;;;;5069384;28;20260;-70
2022/01/06 04:09:40;;;;;;;9.20;2.43;;;;;;;;;;5071558;28;20660;-70
2022/01/06 04:12:09;;;;;;;7.30;1.50;;;;;;;;;;5068854;28;20184;-72
2022/01/06 04:14:34;;;;;;;8.77;1.70;;;;;;;;;;5049702;28;20203;-70
2022/01/06 04:17:00;;;;;;;15.70;1.87;;;;;;;;;;5069530;28;20564;-70
2022/01/06 04:19:25;;;;;;;10.00;1.77;;;;;;;;;;5070428;28;20555;-70
2022/01/06 04:21:51;;;;;;;9.27;3.83;;;;;;;;;;5068942;28;20184;-70
2022/01/06 04:24:17;;;;;;;5.60;1.90;;;;;;;;;;5068169;28;20214;-70
2022/01/06 04:26:42;;;;;;;8.93;1.80;;;;;;;;;;5067724;28;20177;-70
2022/01/06 04:29:07;;;;;;;7.80;1.70;;;;;;;;;;5069072;28;20184;-70
2022/01/06 04:31:32;;;;;;;9.80;1.87;;;;;;;;;;5065910;28;20203;-70
2022/01/06 04:33:57;;;;;;;12.03;1.90;;;;;;;;;;5068481;28;20195;-70
2022/01/06 04:36:23;;;;;;;5.40;1.13;;;;;;;;;;5064918;28;20184;-70
2022/01/06 04:38:48;;;;;;;6.73;1.47;;;;;;;;;;5069724;28;20279;-70
2022/01/06 04:41:13;;;;;;;8.53;2.00;;;;;;;;;;5068550;28;20198;-70
2022/01/06 04:43:38;;;;;;;6.03;1.67;;;;;;;;;;5068977;28;21677;-70
2022/01/06 04:46:04;;;;;;;6.40;1.63;;;;;;;;;;5065916;28;20215;-70
2022/01/06 04:48:29;;;;;;;6.67;1.80;;;;;;;;;;5070506;28;20172;-70
2022/01/06 04:50:54;;;;;;;7.30;1.70;;;;;;;;;;5065905;28;20176;-70
2022/01/06 04:53:19;;;;;;;5.07;1.70;;;;;;;;;;5068688;28;20188;-70
2022/01/06 04:55:44;;;;;;;4.53;1.03;;;;;;;;;;5067361;28;20205;-70
2022/01/06 04:58:10;;;;;;;5.93;1.40;;;;;;;;;;5068466;28;20262;-70
2022/01/06 05:00:35;;;;;;;7.60;1.57;;;;;;;;;;5067151;28;20603;-69
2022/01/06 05:03:00;;;;;;;10.43;2.20;;;;;;;;;;5053030;28;20188;-72
2022/01/06 05:05:25;;;;;;;6.37;1.90;;;;;;;;;;5071423;28;20267;-70
2022/01/06 05:07:50;;;;;;;5.97;1.80;;;;;;;;;;5066852;28;20188;-70
2022/01/06 05:10:16;;;;;;;7.60;1.70;;;;;;;;;;5067477;28;20195;-70
2022/01/06 05:12:41;;;;;;;5.87;1.43;;;;;;;;;;5049129;28;20179;-70
2022/01/06 05:15:07;;;;;;;10.90;1.73;;;;;;;;;;5065624;28;20245;-69
2022/01/06 05:17:32;;;;;;;7.30;2.00;;;;;;;;;;5069110;28;20837;-69
2022/01/06 05:19:58;;;;;;;8.03;1.53;;;;;;;;;;5068032;28;20196;-70
2022/01/06 05:22:23;;;;;;;8.13;1.50;;;;;;;;;;5068020;28;20763;-71
2022/01/06 05:24:48;;;;;;;8.53;2.10;;;;;;;;;;5067412;28;20207;-69
2022/01/06 05:27:13;;;;;;;6.63;1.87;;;;;;;;;;5069450;28;20179;-69
2022/01/06 05:29:39;;;;;;;8.83;1.77;;;;;;;;;;5076295;28;20200;-69
2022/01/06 05:32:04;;;;;;;8.37;2.20;;;;;;;;;;5086876;28;20188;-69
2022/01/06 05:34:29;;;;;;;7.97;1.73;;;;;;;;;;5069772;28;20298;-69
2022/01/06 05:36:54;;;;;;;5.00;1.67;;;;;;;;;;5069696;28;20233;-71
2022/01/06 05:39:20;;;;;;;7.33;3.73;;;;;;;;;;5068166;28;20295;-69
2022/01/06 05:41:45;;;;;;;6.50;1.37;;;;;;;;;;5040465;28;20222;-69
2022/01/06 05:44:10;;;;;;;5.50;2.07;;;;;;;;;;5069213;28;20207;-72
2022/01/06 05:46:35;;;;;;;5.70;1.43;;;;;;;;;;5071456;28;20184;-69
2022/01/06 05:49:00;;;;;;;6.63;2.00;;;;;;;;;;5074229;28;20242;-69
2022/01/06 05:51:26;;;;;;;8.13;1.80;;;;;;;;;;5072418;28;20193;-69
2022/01/06 05:53:53;;;;;;;15.53;2.47;;;;;;;;;;5050551;28;20196;-69
2022/01/06 05:56:18;;;;;;;5.40;1.70;;;;;;;;;;5092023;28;20615;-69
2022/01/06 05:58:43;;;;;;;9.27;1.93;;;;;;;;;;5090091;28;20285;-69
2022/01/06 06:01:08;;;;;;;10.53;1.80;;;;;;;;;;5071578;28;20172;-69
2022/01/06 06:03:34;;;;;;;11.53;2.00;;;;;;;;;;5075497;28;20184;-69
2022/01/06 06:05:59;;;;;;;7.17;1.83;;;;;;;;;;5070179;28;20200;-69
2022/01/06 06:08:24;;;;;;;4.77;1.40;;;;;;;;;;5070524;28;20176;-69
2022/01/06 06:10:50;;;;;;;6.53;1.60;;;;;;;;;;5070407;28;20177;-69
2022/01/06 06:13:16;;;;;;;9.17;1.67;;;;;;;;;;5068957;28;20204;-69
2022/01/06 06:15:41;;;;;;;4.67;1.40;;;;;;;;;;5070027;28;20200;-69
2022/01/06 06:18:09;;;;;;;7.87;1.53;;;;;;;;;;5069111;28;20181;-69
2022/01/06 06:20:35;;;;;;;9.70;2.90;;;;;;;;;;5041581;28;20306;-72
2022/01/06 06:23:00;;;;;;;9.63;2.07;;;;;;;;;;5070363;28;20179;-69
2022/01/06 06:25:25;;;;;;;6.23;1.80;;;;;;;;;;5070114;28;20200;-69
2022/01/06 06:27:51;;;;;;;8.07;1.90;;;;;;;;;;5073707;28;20184;-69
2022/01/06 06:30:16;;;;;;;4.87;1.50;;;;;;;;;;5072000;28;20698;-70
2022/01/06 06:32:41;;;;;;;9.00;1.63;;;;;;;;;;5063622;28;20191;-70
2022/01/06 06:35:07;;;;;;;5.57;1.63;;;;;;;;;;5091042;22;20307;-68
2022/01/06 06:37:32;;;;;;;5.60;1.30;;;;;;;;;;5093319;28;20240;-68
2022/01/06 06:39:57;;;;;;;3.57;1.33;;;;;;;;;;5093930;28;20246;-68
2022/01/06 06:42:23;;;;;;;4.83;1.80;;;;;;;;;;5092358;28;20190;-68
2022/01/06 06:44:48;;;;;;;4.07;1.40;;;;;;;;;;5091248;28;20200;-69
2022/01/06 06:47:14;;;;;;;5.40;1.77;;;;;;;;;;5094286;28;20555;-68
2022/01/06 06:49:39;;;;;;;5.10;1.30;;;;;;;;;;5090583;28;20320;-68
2022/01/06 06:52:04;;;;;;;6.87;2.13;;;;;;;;;;5094679;28;20168;-68
2022/01/06 06:54:30;;;;;;;6.33;1.40;;;;;;;;;;5090547;28;20202;-68
2022/01/06 06:56:55;;;;;;;7.13;2.13;;;;;;;;;;5088372;27;20554;-68
2022/01/06 06:59:20;;;;;;;7.47;1.80;;;;;;;;;;5077027;28;20709;-69
2022/01/06 07:01:45;;;;;;;7.60;2.30;;;;;;;;;;5089748;28;20274;-70
2022/01/06 07:04:10;;;;;;;4.60;1.43;;;;;;;;;;5094529;28;20172;-68
2022/01/06 07:06:36;;;;;;;10.73;2.03;;;;;;;;;;5090412;28;20203;-69
2022/01/06 07:09:01;;;;;;;6.33;1.57;;;;;;;;;;5095567;27;20699;-68
2022/01/06 07:11:26;;;;;;;7.77;1.70;;;;;;;;;;5090461;28;20210;-68
2022/01/06 07:13:51;;;;;;;8.23;1.90;;;;;;;;;;5091279;28;20204;-68
2022/01/06 07:16:16;;;;;;;9.30;2.13;;;;;;;;;;5074684;28;20246;-68
2022/01/06 07:18:42;;;;;;;5.27;1.50;;;;;;;;;;5074356;28;20608;-68
2022/01/06 07:21:07;;;;;;;7.10;1.50;;;;;;;;;;5091295;28;20176;-68
2022/01/06 07:23:32;;;;;;;8.20;2.03;;;;;;;;;;5091099;28;20164;-68
2022/01/06 07:25:57;;;;;;;6.47;1.40;;;;;;;;;;5094692;28;20258;-68
2022/01/06 07:28:22;;;;;;;2.80;1.50;;;;;;;;;;5113530;28;20179;-67
2022/01/06 07:30:47;;;;;;;6.67;1.77;;;;;;;;;;5096625;28;20258;-68
2022/01/06 07:33:13;;;;;;;6.00;2.07;;;;;;;;;;5074787;28;20195;-70
2022/01/06 07:35:38;;;;;;;9.87;1.73;;;;;;;;;;5070019;28;20226;-69
2022/01/06 07:38:03;;;;;;;6.60;1.70;;;;;;;;;;5089885;28;20245;-68
2022/01/06 07:40:28;;;;;;;10.07;2.03;;;;;;;;;;5072351;28;20204;-68
2022/01/06 07:42:53;;;;;;;5.10;2.17;;;;;;;;;;5089356;28;20268;-69
2022/01/06 07:45:19;;;;;;;5.43;2.00;;;;;;;;;;5087091;28;20350;-70
2022/01/06 07:47:59;;;;;;;6.73;1.63;;;;;;;;;;5092242;28;20184;-68
2022/01/06 07:50:26;;;;;;;8.80;2.30;;;;;;;;;;5088867;28;20191;-68
2022/01/06 07:52:52;;;;;;;9.93;2.70;;;;;;;;;;5088539;28;20266;-68
2022/01/06 07:55:17;;;;;;;6.13;3.10;;;;;;;;;;5071524;28;20805;-68
2022/01/06 07:57:42;;;;;;;12.90;3.67;;;;;;;;;;5090657;28;20184;-68
2022/01/06 08:00:07;;;;;;;11.67;2.90;;;;;;;;;;5089869;28;20207;-69
2022/01/06 08:02:33;;;;;;;8.00;2.83;;;;;;;;;;5089861;28;20188;-69
2022/01/06 08:04:58;;;;;;;8.03;3.70;;;;;;;;;;5094640;27;20201;-68
2022/01/06 08:07:23;;;;;;;8.50;3.07;;;;;;;;;;5093307;27;20446;-68
2022/01/06 08:09:48;;;;;;;11.90;3.30;;;;;;;;;;5075428;28;20190;-68
2022/01/06 08:12:13;;;;;;;13.87;4.10;;;;;;;;;;5088945;27;20191;-68
2022/01/06 08:14:39;;;;;;;19.23;4.40;;;;;;;;;;5091145;28;20689;-68
2022/01/06 08:17:04;;;;;;;10.40;3.80;;;;;;;;;;5089752;27;20270;-69
2022/01/06 08:19:29;;;;;;;13.93;4.43;;;;;;;;;;5096838;28;20298;-69
2022/01/06 08:21:54;;;;;;;11.27;3.67;;;;;;;;;;5087453;28;20171;-69
2022/01/06 08:24:19;;;;;;;6.83;3.60;;;;;;;;;;5084403;28;20199;-69
2022/01/06 08:26:44;;;;;;;11.03;3.93;;;;;;;;;;5087646;28;20183;-69
2022/01/06 08:29:10;;;;;;;6.90;3.03;;;;;;;;;;5085410;28;21816;-69
2022/01/06 08:31:35;;;;;;;14.17;5.07;;;;;;;;;;5076527;28;20800;-69
2022/01/06 08:34:00;;;;;;;10.30;4.30;;;;;;;;;;5068213;28;20645;-68
2022/01/06 08:36:25;;;;;;;10.40;4.30;;;;;;;;;;5089379;28;20188;-69
2022/01/06 08:38:50;;;;;;;9.17;3.73;;;;;;;;;;5087930;28;20963;-68
2022/01/06 08:41:15;;;;;;;9.77;4.40;;;;;;;;;;5090170;28;20175;-69
2022/01/06 08:43:41;;;;;;;6.93;3.57;;;;;;;;;;5072316;28;20637;-69
2022/01/06 08:46:06;;;;;;;7.87;4.13;;;;;;;;;;5088685;28;20195;-69
2022/01/06 08:48:31;;;;;;;10.93;5.03;;;;;;;;;;5091713;28;20259;-68
2022/01/06 08:50:56;;;;;;;8.57;4.27;;;;;;;;;;5071524;28;20376;-68
2022/01/06 08:53:22;;;;;;;7.60;3.57;;;;;;;;;;5089452;28;20280;-68
2022/01/06 08:55:48;;;;;;;9.03;3.47;;;;;;;;;;5088023;28;20257;-68
2022/01/06 08:58:16;;;;;;;12.23;4.33;;;;;;;;;;5088779;28;20179;-69
2022/01/06 09:00:41;;;;;;;7.40;3.63;;;;;;;;;;5088396;28;20539;-68
2022/01/06 09:03:07;;;;;;;7.77;4.10;;;;;;;;;;5092155;28;20190;-68
2022/01/06 09:05:36;;;;;;;9.70;4.00;;;;;;;;;;5092421;28;20696;-69
2022/01/06 09:08:02;;;;;;;10.17;3.80;;;;;;;;;;5090285;28;20270;-69
2022/01/06 09:10:30;;;;;;;12.17;3.67;;;;;;;;;;5086714;28;20533;-69
2022/01/06 09:12:55;;;;;;;10.97;4.27;;;;;;;;;;5088980;28;20323;-68
2022/01/06 09:15:20;;;;;;;14.07;4.30;;;;;;;;;;5088587;28;20389;-69
2022/01/06 09:17:46;;;;;;;12.27;4.47;;;;;;;;;;5091703;28;20217;-68
2022/01/06 09:20:11;;;;;;;11.63;3.93;;;;;;;;;;5091427;28;20547;-68
2022/01/06 09:22:36;;;;;;;12.73;4.70;;;;;;;;;;5096776;28;20301;-68
2022/01/06 09:25:02;;;;;;;11.37;4.50;;;;;;;;;;5087672;28;20288;-68
2022/01/06 09:27:29;;;;;;;10.97;5.20;;;;;;;;;;5086700;28;20240;-68
2022/01/06 09:29:55;;;;;;;14.07;4.97;;;;;;;;;;5087481;28;20252;-68
2022/01/06 09:32:20;;;;;;;14.07;5.67;;;;;;;;;;5056443;28;20183;-68
2022/01/06 09:34:45;;;;;;;9.60;4.40;;;;;;;;;;5085280;28;20221;-69
2022/01/06 09:37:10;;;;;;;13.07;4.87;;;;;;;;;;5088455;28;20184;-68
2022/01/06 09:39:36;;;;;;;14.63;5.23;;;;;;;;;;5086451;28;20203;-69
2022/01/06 09:42:01;;;;;;;12.53;6.97;;;;;;;;;;5086852;28;20714;-69
2022/01/06 09:44:26;;;;;;;8.27;4.10;;;;;;;;;;5088398;28;20260;-69
2022/01/06 09:46:52;;;;;;;10.73;4.20;;;;;;;;;;5089679;28;20184;-69
2022/01/06 09:49:18;;;;;;;8.57;3.60;;;;;;;;;;5092559;28;20675;-68
2022/01/06 09:51:44;;;;;;;7.60;3.03;;;;;;;;;;5084934;28;21789;-69
2022/01/06 09:54:09;;;;;;;9.47;3.30;;;;;;;;;;5084905;28;20190;-69
2022/01/06 09:56:36;;;;;;;11.27;3.10;;;;;;;;;;5089473;28;20187;-68
2022/01/06 09:59:01;;;;;;;14.00;4.00;;;;;;;;;;5086845;28;20648;-68
2022/01/06 10:01:26;;;;;;;8.53;3.03;;;;;;;;;;5073809;28;20183;-68
2022/01/06 10:03:51;;;;;;;8.27;2.67;;;;;;;;;;5096198;28;20562;-68
2022/01/06 10:06:16;;;;;;;18.00;4.73;;;;;;;;;;5089930;28;20332;-68
2022/01/06 10:08:47;;;;;;;6.10;2.83;;;;;;;;;;5076793;28;20184;-68
2022/01/06 10:11:14;;;;;;;5.20;2.80;;;;;;;;;;5093835;28;21150;-68
2022/01/06 10:13:41;;;;;;;13.47;4.63;;;;;;;;;;5095190;27;20190;-69
2022/01/06 10:16:16;;;;;;;8.13;2.50;;;;;;;;;;5086400;28;20205;-68
2022/01/06 10:18:53;;;;;;;13.43;4.27;;;;;;;;;;5103273;27;20183;-68
2022/01/06 10:21:19;;;;;;;12.93;3.33;;;;;;;;;;5094659;28;20186;-69
2022/01/06 10:23:45;;;;;;;7.13;2.77;;;;;;;;;;5091968;27;20171;-68
2022/01/06 10:26:11;;;;;;;6.23;2.10;;;;;;;;;;5092056;28;20208;-69
2022/01/06 10:28:37;;;;;;;7.20;2.50;;;;;;;;;;5074626;27;20189;-69
2022/01/06 10:31:05;;;;;;;10.40;2.53;;;;;;;;;;5093480;28;20234;-68
2022/01/06 10:33:35;;;;;;;6.63;2.10;;;;;;;;;;5092658;28;20183;-68
2022/01/06 10:36:04;;;;;;;8.80;2.80;;;;;;;;;;5076239;28;20516;-68
2022/01/06 10:38:30;;;;;;;7.23;2.50;;;;;;;;;;5092840;28;20187;-68
2022/01/06 10:41:07;;;;;;;8.53;2.60;;;;;;;;;;5091096;28;20230;-68
2022/01/06 10:43:33;;;;;;;9.83;2.33;;;;;;;;;;5095929;28;20175;-68
2022/01/06 10:46:02;;;;;;;6.17;2.33;;;;;;;;;;5091046;28;20195;-68
2022/01/06 10:48:27;;;;;;;6.17;2.83;;;;;;;;;;5095545;28;20716;-68
2022/01/06 10:50:57;;;;;;;7.83;2.63;;;;;;;;;;5095333;28;20268;-68
2022/01/06 10:53:22;;;;;;;9.87;2.77;;;;;;;;;;5074941;28;20866;-69
2022/01/06 10:55:47;;;;;;;8.97;2.30;;;;;;;;;;5093467;28;20215;-68
2022/01/06 10:58:17;;;;;;;12.93;2.67;;;;;;;;;;5092108;28;20458;-68
2022/01/06 11:00:43;;;;;;;10.90;2.17;;;;;;;;;;5068439;28;20296;-68
2022/01/06 11:03:11;;;;;;;7.90;3.13;;;;;;;;;;5093029;28;20175;-69
2022/01/06 11:05:38;;;;;;;7.53;2.33;;;;;;;;;;5116114;27;20201;-68
2022/01/06 11:08:04;;;;;;;10.93;3.50;;;;;;;;;;5112019;27;20701;-69
2022/01/06 11:10:29;;;;;;;9.97;3.37;;;;;;;;;;5114223;27;20198;-69
2022/01/06 11:12:55;;;;;;;13.80;2.80;;;;;;;;;;5109537;27;20173;-70
2022/01/06 11:15:20;;;;;;;6.20;2.57;;;;;;;;;;5091062;27;20219;-69
2022/01/06 11:17:47;;;;;;;16.93;2.57;;;;;;;;;;5130842;27;20608;-69
2022/01/06 11:20:12;;;;;;;4.77;2.10;;;;;;;;;;5109627;27;20250;-69
2022/01/06 11:22:47;;;;;;;6.13;2.20;;;;;;;;;;5126505;27;20200;-69
2022/01/06 11:25:12;;;;;;;8.67;2.00;;;;;;;;;;5116734;27;20222;-69
2022/01/06 11:27:37;;;;;;;8.63;2.20;;;;;;;;;;5127761;27;20179;-69
2022/01/06 11:30:20;;;;;;;6.43;2.30;;;;;;;;;;5111701;27;20270;-69
2022/01/06 11:32:46;;;;;;;8.43;2.20;;;;;;;;;;5109635;27;20191;-70
2022/01/06 11:35:18;;;;;;;9.47;2.63;;;;;;;;;;5098774;27;20207;-68
2022/01/06 11:37:48;;;;;;;7.73;2.43;;;;;;;;;;5089816;28;20732;-68
2022/01/06 11:40:14;;;;;;;7.63;2.20;;;;;;;;;;5087865;28;20249;-70
2022/01/06 11:42:40;;;;;;;8.13;2.27;;;;;;;;;;5077227;28;20598;-68
2022/01/06 11:45:06;;;;;;;8.47;2.20;;;;;;;;;;5087370;28;20451;-68
2022/01/06 11:47:38;;;;;;;8.90;2.53;;;;;;;;;;5090720;28;20278;-69
2022/01/06 11:50:19;;;;;;;8.27;2.53;;;;;;;;;;5089336;28;20627;-69
2022/01/06 11:52:52;;;;;;;9.87;2.90;;;;;;;;;;5085778;28;20267;-68
2022/01/06 11:55:17;;;;;;;15.30;3.87;;;;;;;;;;5087628;28;20211;-68
2022/01/06 11:57:42;;;;;;;9.00;2.57;;;;;;;;;;5088394;28;20176;-69
2022/01/06 12:00:16;;;;;;;7.23;2.40;;;;;;;;;;5084589;28;20211;-68
2022/01/06 12:02:45;;;;;;;7.43;2.43;;;;;;;;;;5089323;28;21176;-69
2022/01/06 12:05:11;;;;;;;8.60;2.93;;;;;;;;;;5091124;28;20199;-68
2022/01/06 12:07:47;;;;;;;8.67;3.60;;;;;;;;;;5086636;28;20171;-68
2022/01/06 12:10:12;;;;;;;8.60;1.60;;;;;;;;;;5088874;28;20191;-69
2022/01/06 12:12:39;;;;;;;7.13;1.90;;;;;;;;;;5091087;28;20175;-68
2022/01/06 12:15:06;;;;;;;9.40;1.80;;;;;;;;;;5088216;28;20316;-68
2022/01/06 12:17:31;;;;;;;8.07;2.17;;;;;;;;;;5088626;28;20264;-67
2022/01/06 12:19:56;;;;;;;6.13;2.00;;;;;;;;;;5097464;28;20910;-69
2022/01/06 12:22:25;;;;;;;5.97;1.63;;;;;;;;;;5087987;28;20280;-67
2022/01/06 12:24:58;;;;;;;8.07;1.57;;;;;;;;;;5087389;28;20737;-68
2022/01/06 12:27:23;;;;;;;7.93;1.90;;;;;;;;;;5089758;28;20602;-68
2022/01/06 12:29:48;;;;;;;11.60;2.20;;;;;;;;;;5087865;28;20239;-67
2022/01/06 12:32:13;;;;;;;6.27;2.10;;;;;;;;;;5089571;28;20392;-68
2022/01/06 12:34:39;;;;;;;5.40;1.50;;;;;;;;;;5053025;28;1041450;-68
2022/01/06 12:37:04;;;;;;;5.53;1.70;;;;;;;;;;5073746;28;20242;-68
2022/01/06 12:39:30;;;;;;;8.90;1.83;;;;;;;;;;5095459;28;20633;-68
2022/01/06 12:41:55;;;;;;;6.47;2.17;;;;;;;;;;5091055;28;20197;-68
2022/01/06 12:44:21;;;;;;;9.17;2.23;;;;;;;;;;5075447;28;20195;-69
2022/01/06 12:46:46;;;;;;;8.83;2.40;;;;;;;;;;5097983;27;20186;-69
2022/01/06 12:49:12;;;;;;;6.77;1.97;;;;;;;;;;5069957;28;20192;-68
2022/01/06 12:51:38;;;;;;;7.43;1.67;;;;;;;;;;5090322;28;20195;-67
2022/01/06 12:54:05;;;;;;;6.10;1.70;;;;;;;;;;5087981;27;20728;-69
2022/01/06 12:56:32;;;;;;;7.87;1.73;;;;;;;;;;5089542;28;20183;-67
2022/01/06 12:58:58;;;;;;;8.47;1.63;;;;;;;;;;5088479;28;20278;-69
2022/01/06 13:01:23;;;;;;;5.90;2.17;;;;;;;;;;5073287;28;20664;-67
2022/01/06 13:03:53;;;;;;;7.77;1.60;;;;;;;;;;5094869;28;20186;-67
2022/01/06 13:06:19;;;;;;;6.77;1.73;;;;;;;;;;5109197;28;20195;-67
2022/01/06 13:08:50;;;;;;;5.27;2.30;;;;;;;;;;5091788;28;20710;-69
2022/01/06 13:11:16;;;;;;;3.17;1.40;;;;;;;;;;5073361;28;20233;-68
2022/01/06 13:13:49;;;;;;;8.83;2.03;;;;;;;;;;5086771;28;20179;-69
2022/01/06 13:16:19;;;;;;;12.50;2.00;;;;;;;;;;5070959;28;20202;-68
2022/01/06 13:18:54;;;;;;;6.33;2.00;;;;;;;;;;5095782;28;20260;-68
2022/01/06 13:21:26;;;;;;;6.27;1.80;;;;;;;;;;5089580;28;20202;-68
2022/01/06 13:23:54;;;;;;;6.70;1.90;;;;;;;;;;5090385;28;20211;-68
2022/01/06 13:26:19;;;;;;;7.90;2.03;;;;;;;;;;5092793;28;20230;-69
2022/01/06 13:28:54;;;;;;;6.43;2.60;;;;;;;;;;5091457;28;20252;-68
2022/01/06 13:31:21;;;;;;;6.77;2.07;;;;;;;;;;5089900;28;20362;-68
2022/01/06 13:33:51;;;;;;;7.33;1.30;;;;;;;;;;5087285;28;22210;-68
2022/01/06 13:36:25;;;;;;;9.60;2.20;;;;;;;;;;5087102;28;20579;-68
2022/01/06 13:38:50;;;;;;;8.00;2.17;;;;;;;;;;5087769;28;20173;-68
2022/01/06 13:41:24;;;;;;;7.70;2.23;;;;;;;;;;5088920;28;20570;-68
2022/01/06 13:43:55;;;;;;;9.00;1.67;;;;;;;;;;5088583;28;20229;-68
2022/01/06 13:46:21;;;;;;;6.93;1.63;;;;;;;;;;5071829;28;22058;-68
2022/01/06 13:51:04;;;;;;;6.73;1.70;;;;;;;;;;5096759;28;20188;-69
2022/01/06 13:51:31;;;;;;;9.23;1.70;;;;;;;;;;5090395;28;20201;-69
2022/01/06 13:54:05;;;;;;;7.50;2.03;;;;;;;;;;5089411;28;20188;-69
2022/01/06 13:56:32;;;;;;;11.57;2.00;;;;;;;;;;5069701;28;20195;-68
2022/01/06 13:58:58;;;;;;;7.50;2.07;;;;;;;;;;5070453;28;20203;-68
2022/01/06 14:01:25;;;;;;;12.17;2.57;;;;;;;;;;5088953;28;20184;-69
2022/01/06 14:03:51;;;;;;;8.93;2.13;;;;;;;;;;5091017;28;20237;-68
2022/01/06 14:06:16;;;;;;;6.90;1.57;;;;;;;;;;5086906;28;20207;-68
2022/01/06 14:08:42;;;;;;;8.57;1.90;;;;;;;;;;5087891;28;20251;-69
2022/01/06 14:11:09;;;;;;;10.60;2.20;;;;;;;;;;5085750;28;20198;-69
2022/01/06 14:13:34;;;;;;;9.50;3.83;;;;;;;;;;5088957;28;20172;-68
2022/01/06 14:16:00;;;;;;;7.57;2.00;;;;;;;;;;5088660;28;20586;-69
2022/01/06 14:18:26;;;;;;;7.17;2.00;;;;;;;;;;5090396;28;20176;-68
2022/01/06 14:20:51;;;;;;;7.30;1.73;;;;;;;;;;5083914;28;20200;-68
2022/01/06 14:23:17;;;;;;;8.97;1.90;;;;;;;;;;5092909;28;20183;-69
2022/01/06 14:25:43;;;;;;;7.30;1.90;;;;;;;;;;5087384;28;20221;-69
2022/01/06 14:28:08;;;;;;;7.23;2.10;;;;;;;;;;5087060;28;20180;-69
2022/01/06 14:30:34;;;;;;;7.03;2.00;;;;;;;;;;5088142;28;20180;-69
2022/01/06 14:33:01;;;;;;;12.00;2.60;;;;;;;;;;5091776;28;20190;-69
2022/01/06 14:35:26;;;;;;;10.97;2.77;;;;;;;;;;5111929;28;20695;-69
2022/01/06 14:37:51;;;;;;;8.43;2.30;;;;;;;;;;5083529;28;20168;-69